Pagrindinis puslapis
METAR-TAF:

METAR-TAF

Oro uostai :

Yeovilton, Anglija

platuma: 51-00N, ilguma: 002-38W, Aukštis: 23 m

Dabartinis oras

Ataskaita buvo paskelbta 28 minutes, ne 20:50 UTC
Vėjas 2 kt iš Vakarų/Pietvakarių
Temperatūra -1°C
Drėgmė 86%
Slėgis 999 hPa
Matomumas 10 km arba daugiau

METAR: EGDY 232050Z AUTO 25002KT 9999 NCD M01/M03 Q0999

Laikas: 21:18 (21:18 UTC)


TAF: trūkstamas

Orai ataskaitas ir orų prognozės (METAR, TAF).

turimą stotys yra geltonos ir raudonos taškus žemėlapyje.

Perkelti pele per norėdami pamatyti stoties vardą.

Tada spustelėkite, norėdami matyti oro stebėjimo ir prognozės.

Norėdami pakeisti žemėlapį: spustelėkite ant žalios mygtukų su juodo kryžiaus žemyn,; žalią mygtuką su brūkšneliu, jei norite nutolinti; arba žalių rodyklių gretimoms žemėlapius.


METAR-TAF: